sensor_id;sensor_type;location;lat;lon;timestamp;P1;durP1;ratioP1;P2;durP2;ratioP2
23394;SDS011;11870;53.084;18.206;2023-06-10T00:02:16;9.18;;;4.97;;
23394;SDS011;11870;53.084;18.206;2023-06-10T00:04:43;10.02;;;5.15;;
23394;SDS011;11870;53.084;18.206;2023-06-10T00:07:09;9.27;;;4.80;;
23394;SDS011;11870;53.084;18.206;2023-06-10T00:09:35;13.32;;;5.25;;
23394;SDS011;11870;53.084;18.206;2023-06-10T00:12:03;8.23;;;4.97;;
23394;SDS011;11870;53.084;18.206;2023-06-10T00:14:34;10.07;;;5.32;;
23394;SDS011;11870;53.084;18.206;2023-06-10T00:17:02;9.40;;;5.32;;
23394;SDS011;11870;53.084;18.206;2023-06-10T00:19:28;8.63;;;5.40;;
23394;SDS011;11870;53.084;18.206;2023-06-10T00:21:56;11.13;;;5.45;;
23394;SDS011;11870;53.084;18.206;2023-06-10T00:24:22;10.15;;;5.32;;
23394;SDS011;11870;53.084;18.206;2023-06-10T00:26:48;10.77;;;5.10;;
23394;SDS011;11870;53.084;18.206;2023-06-10T00:29:15;9.55;;;5.80;;
23394;SDS011;11870;53.084;18.206;2023-06-10T00:31:41;10.10;;;4.95;;
23394;SDS011;11870;53.084;18.206;2023-06-10T00:34:07;7.88;;;4.78;;
23394;SDS011;11870;53.084;18.206;2023-06-10T00:36:33;7.78;;;5.00;;
23394;SDS011;11870;53.084;18.206;2023-06-10T00:39:01;8.35;;;4.85;;
23394;SDS011;11870;53.084;18.206;2023-06-10T00:41:27;10.30;;;5.13;;
23394;SDS011;11870;53.084;18.206;2023-06-10T00:43:54;11.38;;;5.70;;
23394;SDS011;11870;53.084;18.206;2023-06-10T00:46:20;6.85;;;4.88;;
23394;SDS011;11870;53.084;18.206;2023-06-10T00:48:47;8.30;;;5.55;;
23394;SDS011;11870;53.084;18.206;2023-06-10T00:51:13;9.88;;;5.60;;
23394;SDS011;11870;53.084;18.206;2023-06-10T00:53:40;8.13;;;5.30;;
23394;SDS011;11870;53.084;18.206;2023-06-10T00:56:07;10.07;;;5.32;;
23394;SDS011;11870;53.084;18.206;2023-06-10T00:58:33;10.35;;;5.25;;
23394;SDS011;11870;53.084;18.206;2023-06-10T01:01:00;7.20;;;4.88;;
23394;SDS011;11870;53.084;18.206;2023-06-10T01:03:27;9.80;;;5.85;;
23394;SDS011;11870;53.084;18.206;2023-06-10T01:06:39;7.65;;;4.65;;
23394;SDS011;11870;53.084;18.206;2023-06-10T01:11:34;11.30;;;5.15;;
23394;SDS011;11870;53.084;18.206;2023-06-10T01:14:06;8.95;;;5.22;;
23394;SDS011;11870;53.084;18.206;2023-06-10T01:16:34;13.85;;;5.72;;
23394;SDS011;11870;53.084;18.206;2023-06-10T01:19:03;10.68;;;6.00;;
23394;SDS011;11870;53.084;18.206;2023-06-10T01:21:28;12.52;;;5.68;;
23394;SDS011;11870;53.084;18.206;2023-06-10T01:23:56;9.95;;;5.47;;
23394;SDS011;11870;53.084;18.206;2023-06-10T01:26:24;9.05;;;5.45;;
23394;SDS011;11870;53.084;18.206;2023-06-10T01:28:57;8.63;;;5.35;;
23394;SDS011;11870;53.084;18.206;2023-06-10T01:34:21;8.40;;;4.90;;
23394;SDS011;11870;53.084;18.206;2023-06-10T01:36:50;7.85;;;4.70;;
23394;SDS011;11870;53.084;18.206;2023-06-10T01:39:17;8.50;;;4.80;;
23394;SDS011;11870;53.084;18.206;2023-06-10T01:41:48;10.40;;;5.68;;
23394;SDS011;11870;53.084;18.206;2023-06-10T01:44:22;10.75;;;5.43;;
23394;SDS011;11870;53.084;18.206;2023-06-10T01:46:48;12.15;;;5.25;;
23394;SDS011;11870;53.084;18.206;2023-06-10T01:49:14;11.43;;;5.85;;
23394;SDS011;11870;53.084;18.206;2023-06-10T01:51:41;9.90;;;5.28;;
23394;SDS011;11870;53.084;18.206;2023-06-10T01:54:07;10.30;;;5.25;;
23394;SDS011;11870;53.084;18.206;2023-06-10T01:56:33;12.73;;;5.25;;
23394;SDS011;11870;53.084;18.206;2023-06-10T01:58:59;10.68;;;4.90;;
23394;SDS011;11870;53.084;18.206;2023-06-10T02:01:25;10.35;;;5.22;;
23394;SDS011;11870;53.084;18.206;2023-06-10T02:03:52;7.90;;;4.80;;
23394;SDS011;11870;53.084;18.206;2023-06-10T02:06:18;13.75;;;4.95;;
23394;SDS011;11870;53.084;18.206;2023-06-10T02:08:44;8.55;;;4.75;;
23394;SDS011;11870;53.084;18.206;2023-06-10T02:11:10;9.32;;;5.03;;
23394;SDS011;11870;53.084;18.206;2023-06-10T02:13:37;9.23;;;5.13;;
23394;SDS011;11870;53.084;18.206;2023-06-10T02:16:04;8.50;;;4.78;;
23394;SDS011;11870;53.084;18.206;2023-06-10T02:18:31;9.63;;;5.00;;
23394;SDS011;11870;53.084;18.206;2023-06-10T02:20:57;10.30;;;5.53;;
23394;SDS011;11870;53.084;18.206;2023-06-10T02:23:23;7.45;;;4.80;;
23394;SDS011;11870;53.084;18.206;2023-06-10T02:25:49;7.20;;;4.88;;
23394;SDS011;11870;53.084;18.206;2023-06-10T02:28:16;13.85;;;5.03;;
23394;SDS011;11870;53.084;18.206;2023-06-10T02:30:42;11.15;;;5.10;;
23394;SDS011;11870;53.084;18.206;2023-06-10T02:33:08;10.20;;;4.95;;
23394;SDS011;11870;53.084;18.206;2023-06-10T02:35:37;9.52;;;4.78;;
23394;SDS011;11870;53.084;18.206;2023-06-10T02:38:04;8.38;;;4.88;;
23394;SDS011;11870;53.084;18.206;2023-06-10T02:40:30;10.23;;;5.20;;
23394;SDS011;11870;53.084;18.206;2023-06-10T02:42:57;9.35;;;5.32;;
23394;SDS011;11870;53.084;18.206;2023-06-10T02:45:23;9.50;;;4.97;;
23394;SDS011;11870;53.084;18.206;2023-06-10T02:47:50;7.20;;;4.97;;
23394;SDS011;11870;53.084;18.206;2023-06-10T02:50:15;8.35;;;4.95;;
23394;SDS011;11870;53.084;18.206;2023-06-10T02:52:42;9.07;;;4.80;;
23394;SDS011;11870;53.084;18.206;2023-06-10T02:55:08;9.63;;;4.70;;
23394;SDS011;11870;53.084;18.206;2023-06-10T02:57:35;8.48;;;4.90;;
23394;SDS011;11870;53.084;18.206;2023-06-10T03:00:01;10.45;;;4.82;;
23394;SDS011;11870;53.084;18.206;2023-06-10T03:02:30;10.48;;;4.93;;
23394;SDS011;11870;53.084;18.206;2023-06-10T03:04:57;7.15;;;4.80;;
23394;SDS011;11870;53.084;18.206;2023-06-10T03:07:23;9.13;;;4.63;;
23394;SDS011;11870;53.084;18.206;2023-06-10T03:09:50;10.27;;;5.38;;
23394;SDS011;11870;53.084;18.206;2023-06-10T03:12:16;10.35;;;4.72;;
23394;SDS011;11870;53.084;18.206;2023-06-10T03:14:42;9.80;;;4.85;;
23394;SDS011;11870;53.084;18.206;2023-06-10T03:17:08;9.52;;;5.40;;
23394;SDS011;11870;53.084;18.206;2023-06-10T03:19:34;8.10;;;4.90;;
23394;SDS011;11870;53.084;18.206;2023-06-10T03:22:09;9.30;;;4.85;;
23394;SDS011;11870;53.084;18.206;2023-06-10T03:24:36;10.05;;;4.65;;
23394;SDS011;11870;53.084;18.206;2023-06-10T03:27:08;7.20;;;4.80;;
23394;SDS011;11870;53.084;18.206;2023-06-10T03:29:36;13.75;;;5.20;;
23394;SDS011;11870;53.084;18.206;2023-06-10T03:32:02;7.97;;;4.63;;
23394;SDS011;11870;53.084;18.206;2023-06-10T03:34:29;10.75;;;5.05;;
23394;SDS011;11870;53.084;18.206;2023-06-10T03:36:55;8.80;;;4.63;;
23394;SDS011;11870;53.084;18.206;2023-06-10T03:39:22;11.52;;;5.03;;
23394;SDS011;11870;53.084;18.206;2023-06-10T03:41:49;8.88;;;4.82;;
23394;SDS011;11870;53.084;18.206;2023-06-10T03:44:15;12.30;;;5.15;;
23394;SDS011;11870;53.084;18.206;2023-06-10T03:46:42;10.70;;;4.97;;
23394;SDS011;11870;53.084;18.206;2023-06-10T03:49:08;12.35;;;4.95;;
23394;SDS011;11870;53.084;18.206;2023-06-10T03:51:35;10.30;;;5.22;;
23394;SDS011;11870;53.084;18.206;2023-06-10T03:54:01;9.88;;;5.25;;
23394;SDS011;11870;53.084;18.206;2023-06-10T03:56:28;7.78;;;5.10;;
23394;SDS011;11870;53.084;18.206;2023-06-10T03:58:54;8.43;;;4.80;;
23394;SDS011;11870;53.084;18.206;2023-06-10T04:01:21;7.80;;;4.63;;
23394;SDS011;11870;53.084;18.206;2023-06-10T04:03:48;10.88;;;4.85;;
23394;SDS011;11870;53.084;18.206;2023-06-10T04:06:16;7.03;;;4.47;;
23394;SDS011;11870;53.084;18.206;2023-06-10T04:08:42;6.68;;;4.35;;
23394;SDS011;11870;53.084;18.206;2023-06-10T04:11:09;10.10;;;4.88;;
23394;SDS011;11870;53.084;18.206;2023-06-10T04:13:35;9.52;;;4.40;;
23394;SDS011;11870;53.084;18.206;2023-06-10T04:16:02;11.98;;;4.60;;
23394;SDS011;11870;53.084;18.206;2023-06-10T04:18:28;7.80;;;4.57;;
23394;SDS011;11870;53.084;18.206;2023-06-10T04:20:55;7.68;;;4.20;;
23394;SDS011;11870;53.084;18.206;2023-06-10T04:23:22;12.38;;;4.03;;
23394;SDS011;11870;53.084;18.206;2023-06-10T04:25:48;6.63;;;4.57;;
23394;SDS011;11870;53.084;18.206;2023-06-10T04:28:15;11.13;;;4.88;;
23394;SDS011;11870;53.084;18.206;2023-06-10T04:30:41;11.95;;;4.10;;
23394;SDS011;11870;53.084;18.206;2023-06-10T04:33:07;12.07;;;4.40;;
23394;SDS011;11870;53.084;18.206;2023-06-10T04:35:34;8.65;;;4.20;;
23394;SDS011;11870;53.084;18.206;2023-06-10T04:38:00;7.28;;;3.72;;
23394;SDS011;11870;53.084;18.206;2023-06-10T04:40:29;9.05;;;4.55;;
23394;SDS011;11870;53.084;18.206;2023-06-10T04:42:55;8.38;;;4.05;;
23394;SDS011;11870;53.084;18.206;2023-06-10T04:45:22;6.53;;;4.18;;
23394;SDS011;11870;53.084;18.206;2023-06-10T04:47:48;10.75;;;4.13;;
23394;SDS011;11870;53.084;18.206;2023-06-10T04:50:14;8.35;;;4.10;;
23394;SDS011;11870;53.084;18.206;2023-06-10T04:52:41;11.00;;;3.83;;
23394;SDS011;11870;53.084;18.206;2023-06-10T04:55:07;7.97;;;3.72;;
23394;SDS011;11870;53.084;18.206;2023-06-10T04:57:34;8.70;;;3.70;;
23394;SDS011;11870;53.084;18.206;2023-06-10T05:00:00;7.57;;;3.65;;
23394;SDS011;11870;53.084;18.206;2023-06-10T05:02:26;8.20;;;3.80;;
23394;SDS011;11870;53.084;18.206;2023-06-10T05:04:53;9.35;;;4.15;;
23394;SDS011;11870;53.084;18.206;2023-06-10T05:07:20;12.50;;;3.88;;
23394;SDS011;11870;53.084;18.206;2023-06-10T05:09:46;6.20;;;3.55;;
23394;SDS011;11870;53.084;18.206;2023-06-10T05:12:12;5.15;;;4.10;;
23394;SDS011;11870;53.084;18.206;2023-06-10T05:14:38;9.48;;;3.22;;
23394;SDS011;11870;53.084;18.206;2023-06-10T05:17:05;8.63;;;4.13;;
23394;SDS011;11870;53.084;18.206;2023-06-10T05:19:31;8.90;;;3.60;;
23394;SDS011;11870;53.084;18.206;2023-06-10T05:21:58;5.03;;;3.67;;
23394;SDS011;11870;53.084;18.206;2023-06-10T05:24:24;6.18;;;3.90;;
23394;SDS011;11870;53.084;18.206;2023-06-10T05:26:50;8.38;;;4.18;;
23394;SDS011;11870;53.084;18.206;2023-06-10T05:29:17;7.93;;;4.10;;
23394;SDS011;11870;53.084;18.206;2023-06-10T05:31:43;6.47;;;3.80;;
23394;SDS011;11870;53.084;18.206;2023-06-10T05:34:09;5.82;;;3.60;;
23394;SDS011;11870;53.084;18.206;2023-06-10T05:36:36;6.70;;;3.50;;
23394;SDS011;11870;53.084;18.206;2023-06-10T05:39:02;10.80;;;3.90;;
23394;SDS011;11870;53.084;18.206;2023-06-10T05:41:29;8.23;;;3.55;;
23394;SDS011;11870;53.084;18.206;2023-06-10T05:43:56;7.38;;;3.85;;
23394;SDS011;11870;53.084;18.206;2023-06-10T05:46:22;7.03;;;3.60;;
23394;SDS011;11870;53.084;18.206;2023-06-10T05:48:49;5.18;;;3.70;;
23394;SDS011;11870;53.084;18.206;2023-06-10T05:51:15;10.88;;;3.72;;
23394;SDS011;11870;53.084;18.206;2023-06-10T05:53:42;5.50;;;3.65;;
23394;SDS011;11870;53.084;18.206;2023-06-10T05:56:08;5.30;;;3.42;;
23394;SDS011;11870;53.084;18.206;2023-06-10T05:58:34;10.50;;;3.50;;
23394;SDS011;11870;53.084;18.206;2023-06-10T06:01:00;4.65;;;3.60;;
23394;SDS011;11870;53.084;18.206;2023-06-10T06:03:27;8.90;;;3.42;;
23394;SDS011;11870;53.084;18.206;2023-06-10T06:05:53;7.25;;;3.20;;
23394;SDS011;11870;53.084;18.206;2023-06-10T06:08:20;4.93;;;3.38;;
23394;SDS011;11870;53.084;18.206;2023-06-10T06:10:46;6.25;;;3.25;;
23394;SDS011;11870;53.084;18.206;2023-06-10T06:13:13;8.15;;;3.67;;
23394;SDS011;11870;53.084;18.206;2023-06-10T06:15:39;8.23;;;3.70;;
23394;SDS011;11870;53.084;18.206;2023-06-10T06:18:05;6.90;;;3.58;;
23394;SDS011;11870;53.084;18.206;2023-06-10T06:20:32;4.95;;;3.50;;
23394;SDS011;11870;53.084;18.206;2023-06-10T06:22:58;6.13;;;3.70;;
23394;SDS011;11870;53.084;18.206;2023-06-10T06:25:24;6.25;;;3.45;;
23394;SDS011;11870;53.084;18.206;2023-06-10T06:27:51;9.18;;;3.50;;
23394;SDS011;11870;53.084;18.206;2023-06-10T06:30:17;10.30;;;3.70;;
23394;SDS011;11870;53.084;18.206;2023-06-10T06:32:43;5.47;;;3.50;;
23394;SDS011;11870;53.084;18.206;2023-06-10T06:35:10;8.38;;;3.42;;
23394;SDS011;11870;53.084;18.206;2023-06-10T06:37:36;6.32;;;3.10;;
23394;SDS011;11870;53.084;18.206;2023-06-10T06:40:02;4.40;;;3.20;;
23394;SDS011;11870;53.084;18.206;2023-06-10T06:42:29;6.40;;;3.42;;
23394;SDS011;11870;53.084;18.206;2023-06-10T06:44:55;11.52;;;3.92;;
23394;SDS011;11870;53.084;18.206;2023-06-10T06:47:21;6.30;;;3.80;;
23394;SDS011;11870;53.084;18.206;2023-06-10T06:49:48;5.95;;;3.42;;
23394;SDS011;11870;53.084;18.206;2023-06-10T06:52:14;7.18;;;3.42;;
23394;SDS011;11870;53.084;18.206;2023-06-10T06:54:40;10.00;;;3.58;;
23394;SDS011;11870;53.084;18.206;2023-06-10T06:57:07;7.95;;;3.47;;
23394;SDS011;11870;53.084;18.206;2023-06-10T06:59:33;6.65;;;3.50;;
23394;SDS011;11870;53.084;18.206;2023-06-10T07:01:59;12.63;;;3.53;;
23394;SDS011;11870;53.084;18.206;2023-06-10T07:04:26;9.05;;;3.63;;
23394;SDS011;11870;53.084;18.206;2023-06-10T07:06:52;6.43;;;3.60;;
23394;SDS011;11870;53.084;18.206;2023-06-10T07:09:18;4.97;;;3.40;;
23394;SDS011;11870;53.084;18.206;2023-06-10T07:11:45;4.97;;;3.28;;
23394;SDS011;11870;53.084;18.206;2023-06-10T07:14:11;8.27;;;4.18;;
23394;SDS011;11870;53.084;18.206;2023-06-10T07:16:38;7.45;;;3.40;;
23394;SDS011;11870;53.084;18.206;2023-06-10T07:19:04;7.97;;;3.88;;
23394;SDS011;11870;53.084;18.206;2023-06-10T07:21:30;9.85;;;3.65;;
23394;SDS011;11870;53.084;18.206;2023-06-10T07:23:57;8.50;;;3.83;;
23394;SDS011;11870;53.084;18.206;2023-06-10T07:26:23;4.68;;;3.20;;
23394;SDS011;11870;53.084;18.206;2023-06-10T07:28:51;5.75;;;3.13;;
23394;SDS011;11870;53.084;18.206;2023-06-10T07:31:17;5.70;;;3.40;;
23394;SDS011;11870;53.084;18.206;2023-06-10T07:33:43;5.35;;;3.65;;
23394;SDS011;11870;53.084;18.206;2023-06-10T07:36:09;11.30;;;3.33;;
23394;SDS011;11870;53.084;18.206;2023-06-10T07:38:35;4.45;;;3.13;;
23394;SDS011;11870;53.084;18.206;2023-06-10T07:41:02;5.05;;;3.65;;
23394;SDS011;11870;53.084;18.206;2023-06-10T07:43:27;8.02;;;3.47;;
23394;SDS011;11870;53.084;18.206;2023-06-10T07:45:54;5.97;;;3.35;;
23394;SDS011;11870;53.084;18.206;2023-06-10T07:48:20;6.35;;;3.58;;
23394;SDS011;11870;53.084;18.206;2023-06-10T07:50:46;5.57;;;3.22;;
23394;SDS011;11870;53.084;18.206;2023-06-10T07:53:12;6.35;;;3.67;;
23394;SDS011;11870;53.084;18.206;2023-06-10T07:55:38;6.50;;;3.42;;
23394;SDS011;11870;53.084;18.206;2023-06-10T07:58:04;5.47;;;3.22;;
23394;SDS011;11870;53.084;18.206;2023-06-10T08:00:31;4.13;;;3.13;;
23394;SDS011;11870;53.084;18.206;2023-06-10T08:02:56;4.32;;;3.40;;
23394;SDS011;11870;53.084;18.206;2023-06-10T08:05:23;6.47;;;3.25;;
23394;SDS011;11870;53.084;18.206;2023-06-10T08:07:49;12.20;;;4.15;;
23394;SDS011;11870;53.084;18.206;2023-06-10T08:10:15;5.13;;;3.03;;
23394;SDS011;11870;53.084;18.206;2023-06-10T08:12:41;8.98;;;3.50;;
23394;SDS011;11870;53.084;18.206;2023-06-10T08:15:07;5.72;;;3.22;;
23394;SDS011;11870;53.084;18.206;2023-06-10T08:17:33;7.68;;;3.72;;
23394;SDS011;11870;53.084;18.206;2023-06-10T08:20:00;9.07;;;3.83;;
23394;SDS011;11870;53.084;18.206;2023-06-10T08:22:27;7.05;;;3.70;;
23394;SDS011;11870;53.084;18.206;2023-06-10T08:24:54;7.18;;;3.72;;
23394;SDS011;11870;53.084;18.206;2023-06-10T08:27:21;8.98;;;3.25;;
23394;SDS011;11870;53.084;18.206;2023-06-10T08:29:47;8.25;;;3.80;;
23394;SDS011;11870;53.084;18.206;2023-06-10T08:32:13;5.13;;;3.47;;
23394;SDS011;11870;53.084;18.206;2023-06-10T08:34:39;8.18;;;3.65;;
23394;SDS011;11870;53.084;18.206;2023-06-10T08:37:06;4.78;;;3.30;;
23394;SDS011;11870;53.084;18.206;2023-06-10T08:39:32;5.47;;;3.63;;
23394;SDS011;11870;53.084;18.206;2023-06-10T08:44:36;7.53;;;3.30;;
23394;SDS011;11870;53.084;18.206;2023-06-10T08:47:06;6.78;;;3.45;;
23394;SDS011;11870;53.084;18.206;2023-06-10T08:49:44;7.68;;;3.40;;
23394;SDS011;11870;53.084;18.206;2023-06-10T08:52:14;5.03;;;3.40;;
23394;SDS011;11870;53.084;18.206;2023-06-10T08:54:58;8.10;;;3.67;;
23394;SDS011;11870;53.084;18.206;2023-06-10T08:57:26;5.97;;;3.30;;
23394;SDS011;11870;53.084;18.206;2023-06-10T08:59:53;6.03;;;3.47;;
23394;SDS011;11870;53.084;18.206;2023-06-10T09:02:20;4.93;;;3.60;;
23394;SDS011;11870;53.084;18.206;2023-06-10T09:04:47;8.73;;;3.53;;
23394;SDS011;11870;53.084;18.206;2023-06-10T09:07:15;5.00;;;3.70;;
23394;SDS011;11870;53.084;18.206;2023-06-10T09:09:44;4.68;;;3.10;;
23394;SDS011;11870;53.084;18.206;2023-06-10T09:12:11;7.45;;;3.20;;
23394;SDS011;11870;53.084;18.206;2023-06-10T09:14:38;8.65;;;3.80;;
23394;SDS011;11870;53.084;18.206;2023-06-10T09:17:05;7.72;;;3.40;;
23394;SDS011;11870;53.084;18.206;2023-06-10T09:19:31;4.68;;;3.53;;
23394;SDS011;11870;53.084;18.206;2023-06-10T09:21:58;5.78;;;3.95;;
23394;SDS011;11870;53.084;18.206;2023-06-10T09:24:24;9.85;;;4.20;;
23394;SDS011;11870;53.084;18.206;2023-06-10T09:26:50;7.53;;;3.42;;
23394;SDS011;11870;53.084;18.206;2023-06-10T09:29:27;9.57;;;4.07;;
23394;SDS011;11870;53.084;18.206;2023-06-10T09:31:53;8.20;;;3.40;;
23394;SDS011;11870;53.084;18.206;2023-06-10T09:34:20;8.70;;;3.55;;
23394;SDS011;11870;53.084;18.206;2023-06-10T09:36:50;10.65;;;3.58;;
23394;SDS011;11870;53.084;18.206;2023-06-10T09:39:17;7.88;;;3.70;;
23394;SDS011;11870;53.084;18.206;2023-06-10T09:41:44;5.60;;;3.88;;
23394;SDS011;11870;53.084;18.206;2023-06-10T09:44:18;10.38;;;4.28;;
23394;SDS011;11870;53.084;18.206;2023-06-10T09:46:46;6.22;;;3.58;;
23394;SDS011;11870;53.084;18.206;2023-06-10T09:49:13;6.05;;;3.40;;
23394;SDS011;11870;53.084;18.206;2023-06-10T09:51:52;6.93;;;3.30;;
23394;SDS011;11870;53.084;18.206;2023-06-10T09:54:22;4.50;;;3.10;;
23394;SDS011;11870;53.084;18.206;2023-06-10T09:56:48;6.38;;;3.30;;
23394;SDS011;11870;53.084;18.206;2023-06-10T09:59:38;6.00;;;3.45;;
23394;SDS011;11870;53.084;18.206;2023-06-10T10:02:03;5.78;;;3.45;;
23394;SDS011;11870;53.084;18.206;2023-06-10T10:04:29;6.68;;;3.50;;
23394;SDS011;11870;53.084;18.206;2023-06-10T10:06:56;5.25;;;3.13;;
23394;SDS011;11870;53.084;18.206;2023-06-10T10:09:22;8.45;;;3.47;;
23394;SDS011;11870;53.084;18.206;2023-06-10T10:11:48;7.25;;;3.60;;
23394;SDS011;11870;53.084;18.206;2023-06-10T10:14:15;4.90;;;3.42;;
23394;SDS011;11870;53.084;18.206;2023-06-10T10:16:41;5.43;;;3.50;;
23394;SDS011;11870;53.084;18.206;2023-06-10T10:19:13;5.32;;;3.10;;
23394;SDS011;11870;53.084;18.206;2023-06-10T10:22:06;4.78;;;2.95;;
23394;SDS011;11870;53.084;18.206;2023-06-10T10:24:36;3.47;;;2.92;;
23394;SDS011;11870;53.084;18.206;2023-06-10T10:27:11;5.13;;;3.13;;
23394;SDS011;11870;53.084;18.206;2023-06-10T10:29:42;7.07;;;3.22;;
23394;SDS011;11870;53.084;18.206;2023-06-10T10:32:13;7.85;;;2.90;;
23394;SDS011;11870;53.084;18.206;2023-06-10T10:34:43;40.72;;;4.20;;
23394;SDS011;11870;53.084;18.206;2023-06-10T10:37:23;7.30;;;2.75;;
23394;SDS011;11870;53.084;18.206;2023-06-10T10:39:50;4.25;;;2.90;;
23394;SDS011;11870;53.084;18.206;2023-06-10T10:42:16;5.13;;;3.10;;
23394;SDS011;11870;53.084;18.206;2023-06-10T10:44:47;9.65;;;3.00;;
23394;SDS011;11870;53.084;18.206;2023-06-10T10:47:13;4.25;;;2.90;;
23394;SDS011;11870;53.084;18.206;2023-06-10T10:49:40;6.18;;;3.28;;
23394;SDS011;11870;53.084;18.206;2023-06-10T10:52:13;9.05;;;3.33;;
23394;SDS011;11870;53.084;18.206;2023-06-10T10:54:43;5.40;;;2.97;;
23394;SDS011;11870;53.084;18.206;2023-06-10T10:57:18;5.28;;;3.05;;
23394;SDS011;11870;53.084;18.206;2023-06-10T11:02:15;4.53;;;2.65;;
23394;SDS011;11870;53.084;18.206;2023-06-10T11:04:47;8.98;;;2.80;;
23394;SDS011;11870;53.084;18.206;2023-06-10T11:07:13;8.88;;;2.58;;
23394;SDS011;11870;53.084;18.206;2023-06-10T11:10:28;6.45;;;2.80;;
23394;SDS011;11870;53.084;18.206;2023-06-10T11:15:11;4.45;;;2.35;;
23394;SDS011;11870;53.084;18.206;2023-06-10T11:18:06;3.13;;;2.60;;
23394;SDS011;11870;53.084;18.206;2023-06-10T11:26:09;5.45;;;2.78;;
23394;SDS011;11870;53.084;18.206;2023-06-10T11:28:36;3.75;;;2.40;;
23394;SDS011;11870;53.084;18.206;2023-06-10T11:31:02;4.30;;;2.70;;
23394;SDS011;11870;53.084;18.206;2023-06-10T11:33:29;4.53;;;2.30;;
23394;SDS011;11870;53.084;18.206;2023-06-10T11:35:56;5.15;;;2.67;;
23394;SDS011;11870;53.084;18.206;2023-06-10T11:38:23;3.90;;;2.60;;
23394;SDS011;11870;53.084;18.206;2023-06-10T11:40:53;7.47;;;2.75;;
23394;SDS011;11870;53.084;18.206;2023-06-10T11:43:19;5.82;;;2.83;;
23394;SDS011;11870;53.084;18.206;2023-06-10T11:45:46;6.80;;;2.90;;
23394;SDS011;11870;53.084;18.206;2023-06-10T11:48:12;8.65;;;2.67;;
23394;SDS011;11870;53.084;18.206;2023-06-10T11:50:39;6.55;;;2.70;;
23394;SDS011;11870;53.084;18.206;2023-06-10T11:53:07;7.45;;;2.58;;
23394;SDS011;11870;53.084;18.206;2023-06-10T11:58:20;8.10;;;2.58;;
23394;SDS011;11870;53.084;18.206;2023-06-10T12:00:48;4.40;;;2.60;;
23394;SDS011;11870;53.084;18.206;2023-06-10T12:03:16;3.35;;;2.50;;
23394;SDS011;11870;53.084;18.206;2023-06-10T12:05:56;4.40;;;2.47;;
23394;SDS011;11870;53.084;18.206;2023-06-10T12:08:24;10.13;;;2.63;;
23394;SDS011;11870;53.084;18.206;2023-06-10T12:10:51;4.72;;;2.70;;
23394;SDS011;11870;53.084;18.206;2023-06-10T12:13:17;3.80;;;2.22;;
23394;SDS011;11870;53.084;18.206;2023-06-10T12:15:44;6.43;;;2.40;;
23394;SDS011;11870;53.084;18.206;2023-06-10T12:18:17;3.13;;;1.92;;
23394;SDS011;11870;53.084;18.206;2023-06-10T12:20:44;7.85;;;2.50;;
23394;SDS011;11870;53.084;18.206;2023-06-10T12:23:10;3.13;;;2.22;;
23394;SDS011;11870;53.084;18.206;2023-06-10T12:25:37;5.25;;;2.40;;
23394;SDS011;11870;53.084;18.206;2023-06-10T12:28:03;6.93;;;2.33;;
23394;SDS011;11870;53.084;18.206;2023-06-10T12:30:31;3.38;;;2.40;;
23394;SDS011;11870;53.084;18.206;2023-06-10T12:32:57;6.57;;;2.67;;
23394;SDS011;11870;53.084;18.206;2023-06-10T12:35:25;4.65;;;3.08;;
23394;SDS011;11870;53.084;18.206;2023-06-10T12:38:03;7.28;;;2.40;;
23394;SDS011;11870;53.084;18.206;2023-06-10T12:40:34;2.75;;;2.08;;
23394;SDS011;11870;53.084;18.206;2023-06-10T12:43:02;5.38;;;2.00;;
23394;SDS011;11870;53.084;18.206;2023-06-10T12:45:35;8.65;;;2.42;;
23394;SDS011;11870;53.084;18.206;2023-06-10T12:48:11;3.38;;;2.30;;
23394;SDS011;11870;53.084;18.206;2023-06-10T12:50:43;3.58;;;2.10;;
23394;SDS011;11870;53.084;18.206;2023-06-10T12:53:11;5.40;;;2.08;;
23394;SDS011;11870;53.084;18.206;2023-06-10T12:55:37;3.63;;;2.50;;
23394;SDS011;11870;53.084;18.206;2023-06-10T12:58:05;4.85;;;2.20;;
23394;SDS011;11870;53.084;18.206;2023-06-10T13:00:31;5.55;;;2.33;;
23394;SDS011;11870;53.084;18.206;2023-06-10T13:03:00;8.35;;;2.40;;
23394;SDS011;11870;53.084;18.206;2023-06-10T13:05:28;4.70;;;1.95;;
23394;SDS011;11870;53.084;18.206;2023-06-10T13:07:54;4.85;;;2.45;;
23394;SDS011;11870;53.084;18.206;2023-06-10T13:10:21;5.10;;;2.38;;
23394;SDS011;11870;53.084;18.206;2023-06-10T13:12:47;3.83;;;2.28;;
23394;SDS011;11870;53.084;18.206;2023-06-10T13:15:15;5.15;;;2.50;;
23394;SDS011;11870;53.084;18.206;2023-06-10T13:17:42;4.60;;;2.50;;
23394;SDS011;11870;53.084;18.206;2023-06-10T13:20:15;5.55;;;2.53;;
23394;SDS011;11870;53.084;18.206;2023-06-10T13:22:42;6.22;;;2.28;;
23394;SDS011;11870;53.084;18.206;2023-06-10T13:25:09;7.20;;;2.10;;
23394;SDS011;11870;53.084;18.206;2023-06-10T13:27:35;10.65;;;2.78;;
23394;SDS011;11870;53.084;18.206;2023-06-10T13:30:05;5.45;;;2.17;;
23394;SDS011;11870;53.084;18.206;2023-06-10T13:32:32;6.95;;;2.30;;
23394;SDS011;11870;53.084;18.206;2023-06-10T13:34:59;3.38;;;2.60;;
23394;SDS011;11870;53.084;18.206;2023-06-10T13:37:25;4.32;;;2.15;;
23394;SDS011;11870;53.084;18.206;2023-06-10T13:39:51;4.68;;;2.00;;
23394;SDS011;11870;53.084;18.206;2023-06-10T13:42:18;3.05;;;1.90;;
23394;SDS011;11870;53.084;18.206;2023-06-10T13:44:45;4.68;;;2.25;;
23394;SDS011;11870;53.084;18.206;2023-06-10T13:47:12;4.28;;;2.55;;
23394;SDS011;11870;53.084;18.206;2023-06-10T13:49:39;2.85;;;2.13;;
23394;SDS011;11870;53.084;18.206;2023-06-10T13:52:06;4.70;;;2.03;;
23394;SDS011;11870;53.084;18.206;2023-06-10T13:54:33;3.28;;;2.15;;
23394;SDS011;11870;53.084;18.206;2023-06-10T13:57:01;5.03;;;2.25;;
23394;SDS011;11870;53.084;18.206;2023-06-10T13:59:28;3.08;;;2.25;;
23394;SDS011;11870;53.084;18.206;2023-06-10T14:01:54;6.22;;;2.22;;
23394;SDS011;11870;53.084;18.206;2023-06-10T14:04:22;4.65;;;1.90;;
23394;SDS011;11870;53.084;18.206;2023-06-10T14:06:48;4.22;;;2.08;;
23394;SDS011;11870;53.084;18.206;2023-06-10T14:09:15;3.75;;;2.28;;
23394;SDS011;11870;53.084;18.206;2023-06-10T14:11:41;2.72;;;2.03;;
23394;SDS011;11870;53.084;18.206;2023-06-10T14:14:08;4.90;;;2.33;;
23394;SDS011;11870;53.084;18.206;2023-06-10T14:16:35;4.60;;;2.05;;
23394;SDS011;11870;53.084;18.206;2023-06-10T14:19:02;5.80;;;2.22;;
23394;SDS011;11870;53.084;18.206;2023-06-10T14:21:28;4.78;;;2.05;;
23394;SDS011;11870;53.084;18.206;2023-06-10T14:23:54;3.03;;;2.05;;
23394;SDS011;11870;53.084;18.206;2023-06-10T14:26:21;5.05;;;2.10;;
23394;SDS011;11870;53.084;18.206;2023-06-10T14:28:47;7.85;;;1.90;;
23394;SDS011;11870;53.084;18.206;2023-06-10T14:31:15;5.75;;;2.00;;
23394;SDS011;11870;53.084;18.206;2023-06-10T14:33:41;5.05;;;2.00;;
23394;SDS011;11870;53.084;18.206;2023-06-10T14:36:09;6.13;;;2.00;;
23394;SDS011;11870;53.084;18.206;2023-06-10T14:38:36;5.80;;;1.90;;
23394;SDS011;11870;53.084;18.206;2023-06-10T14:41:02;7.53;;;2.15;;
23394;SDS011;11870;53.084;18.206;2023-06-10T14:43:28;3.75;;;1.75;;
23394;SDS011;11870;53.084;18.206;2023-06-10T14:45:55;3.53;;;2.00;;
23394;SDS011;11870;53.084;18.206;2023-06-10T14:48:23;4.65;;;2.20;;
23394;SDS011;11870;53.084;18.206;2023-06-10T14:50:49;7.10;;;1.85;;
23394;SDS011;11870;53.084;18.206;2023-06-10T14:53:17;3.47;;;1.85;;
23394;SDS011;11870;53.084;18.206;2023-06-10T14:55:43;2.00;;;1.70;;
23394;SDS011;11870;53.084;18.206;2023-06-10T14:58:10;2.63;;;1.80;;